sensor_id;sensor_type;location;lat;lon;timestamp;P1;durP1;ratioP1;P2;durP2;ratioP2
17850;SDS011;9051;51.548;14.348;2023-04-29T00:00:35;7.87;;;6.53;;
17850;SDS011;9051;51.548;14.348;2023-04-29T00:03:08;9.53;;;6.57;;
17850;SDS011;9051;51.548;14.348;2023-04-29T00:05:40;9.67;;;6.50;;
17850;SDS011;9051;51.548;14.348;2023-04-29T00:08:12;11.50;;;6.67;;
17850;SDS011;9051;51.548;14.348;2023-04-29T00:10:44;10.43;;;7.53;;
17850;SDS011;9051;51.548;14.348;2023-04-29T00:13:16;10.83;;;7.33;;
17850;SDS011;9051;51.548;14.348;2023-04-29T00:15:48;9.70;;;7.07;;
17850;SDS011;9051;51.548;14.348;2023-04-29T00:18:22;9.53;;;7.40;;
17850;SDS011;9051;51.548;14.348;2023-04-29T00:20:54;8.27;;;7.03;;
17850;SDS011;9051;51.548;14.348;2023-04-29T00:23:26;11.97;;;7.80;;
17850;SDS011;9051;51.548;14.348;2023-04-29T00:25:57;9.87;;;7.47;;
17850;SDS011;9051;51.548;14.348;2023-04-29T00:28:29;9.13;;;7.53;;
17850;SDS011;9051;51.548;14.348;2023-04-29T00:31:02;11.93;;;8.73;;
17850;SDS011;9051;51.548;14.348;2023-04-29T00:33:35;12.00;;;8.93;;
17850;SDS011;9051;51.548;14.348;2023-04-29T00:36:09;14.60;;;9.83;;
17850;SDS011;9051;51.548;14.348;2023-04-29T00:38:41;12.20;;;9.23;;
17850;SDS011;9051;51.548;14.348;2023-04-29T00:41:14;18.83;;;10.47;;
17850;SDS011;9051;51.548;14.348;2023-04-29T00:43:46;13.83;;;10.27;;
17850;SDS011;9051;51.548;14.348;2023-04-29T00:46:18;15.40;;;10.57;;
17850;SDS011;9051;51.548;14.348;2023-04-29T00:48:51;17.03;;;10.27;;
17850;SDS011;9051;51.548;14.348;2023-04-29T00:51:23;15.07;;;10.07;;
17850;SDS011;9051;51.548;14.348;2023-04-29T00:53:55;14.40;;;10.30;;
17850;SDS011;9051;51.548;14.348;2023-04-29T00:56:28;15.87;;;10.87;;
17850;SDS011;9051;51.548;14.348;2023-04-29T00:59:04;15.17;;;10.27;;
17850;SDS011;9051;51.548;14.348;2023-04-29T01:01:38;17.50;;;11.60;;
17850;SDS011;9051;51.548;14.348;2023-04-29T01:04:12;17.23;;;11.80;;
17850;SDS011;9051;51.548;14.348;2023-04-29T01:06:48;17.47;;;11.27;;
17850;SDS011;9051;51.548;14.348;2023-04-29T01:09:34;16.17;;;10.77;;
17850;SDS011;9051;51.548;14.348;2023-04-29T01:12:19;17.60;;;11.50;;
17850;SDS011;9051;51.548;14.348;2023-04-29T01:15:02;17.30;;;11.57;;
17850;SDS011;9051;51.548;14.348;2023-04-29T01:17:38;17.40;;;11.37;;
17850;SDS011;9051;51.548;14.348;2023-04-29T01:20:16;20.27;;;11.93;;
17850;SDS011;9051;51.548;14.348;2023-04-29T01:22:49;14.53;;;10.43;;
17850;SDS011;9051;51.548;14.348;2023-04-29T01:25:23;14.90;;;10.37;;
17850;SDS011;9051;51.548;14.348;2023-04-29T01:28:20;11.50;;;10.00;;
17850;SDS011;9051;51.548;14.348;2023-04-29T01:31:03;11.97;;;9.90;;
17850;SDS011;9051;51.548;14.348;2023-04-29T01:33:39;13.37;;;9.60;;
17850;SDS011;9051;51.548;14.348;2023-04-29T01:36:21;11.60;;;9.70;;
17850;SDS011;9051;51.548;14.348;2023-04-29T01:39:02;13.43;;;10.10;;
17850;SDS011;9051;51.548;14.348;2023-04-29T01:41:48;11.70;;;10.27;;
17850;SDS011;9051;51.548;14.348;2023-04-29T01:44:30;14.30;;;10.47;;
17850;SDS011;9051;51.548;14.348;2023-04-29T01:47:04;13.27;;;10.80;;
17850;SDS011;9051;51.548;14.348;2023-04-29T01:49:44;14.67;;;11.17;;
17850;SDS011;9051;51.548;14.348;2023-04-29T01:52:17;13.57;;;10.70;;
17850;SDS011;9051;51.548;14.348;2023-04-29T01:54:57;13.73;;;10.87;;
17850;SDS011;9051;51.548;14.348;2023-04-29T01:57:35;12.87;;;10.57;;
17850;SDS011;9051;51.548;14.348;2023-04-29T02:00:19;13.77;;;10.70;;
17850;SDS011;9051;51.548;14.348;2023-04-29T02:02:55;15.13;;;10.60;;
17850;SDS011;9051;51.548;14.348;2023-04-29T02:05:43;15.07;;;11.00;;
17850;SDS011;9051;51.548;14.348;2023-04-29T02:08:16;14.53;;;11.47;;
17850;SDS011;9051;51.548;14.348;2023-04-29T02:10:53;14.57;;;11.13;;
17850;SDS011;9051;51.548;14.348;2023-04-29T02:13:37;13.80;;;11.23;;
17850;SDS011;9051;51.548;14.348;2023-04-29T02:16:10;14.90;;;11.83;;
17850;SDS011;9051;51.548;14.348;2023-04-29T02:18:51;13.30;;;11.43;;
17850;SDS011;9051;51.548;14.348;2023-04-29T02:21:24;14.13;;;11.40;;
17850;SDS011;9051;51.548;14.348;2023-04-29T02:23:57;13.63;;;11.63;;
17850;SDS011;9051;51.548;14.348;2023-04-29T02:26:31;14.60;;;12.13;;
17850;SDS011;9051;51.548;14.348;2023-04-29T02:29:05;13.47;;;11.77;;
17850;SDS011;9051;51.548;14.348;2023-04-29T02:31:36;18.93;;;12.23;;
17850;SDS011;9051;51.548;14.348;2023-04-29T02:34:09;16.37;;;12.77;;
17850;SDS011;9051;51.548;14.348;2023-04-29T02:36:42;14.83;;;12.43;;
17850;SDS011;9051;51.548;14.348;2023-04-29T02:39:14;14.40;;;11.97;;
17850;SDS011;9051;51.548;14.348;2023-04-29T02:41:46;15.13;;;12.10;;
17850;SDS011;9051;51.548;14.348;2023-04-29T02:44:19;16.83;;;12.37;;
17850;SDS011;9051;51.548;14.348;2023-04-29T02:46:51;14.67;;;12.23;;
17850;SDS011;9051;51.548;14.348;2023-04-29T02:49:24;13.20;;;11.80;;
17850;SDS011;9051;51.548;14.348;2023-04-29T02:51:57;15.13;;;12.23;;
17850;SDS011;9051;51.548;14.348;2023-04-29T02:54:29;15.20;;;13.07;;
17850;SDS011;9051;51.548;14.348;2023-04-29T02:57:01;15.97;;;13.10;;
17850;SDS011;9051;51.548;14.348;2023-04-29T02:59:34;15.57;;;13.00;;
17850;SDS011;9051;51.548;14.348;2023-04-29T03:02:07;16.67;;;13.53;;
17850;SDS011;9051;51.548;14.348;2023-04-29T03:04:39;17.53;;;14.47;;
17850;SDS011;9051;51.548;14.348;2023-04-29T03:07:10;18.50;;;14.37;;
17850;SDS011;9051;51.548;14.348;2023-04-29T03:09:43;19.10;;;15.10;;
17850;SDS011;9051;51.548;14.348;2023-04-29T03:12:15;20.37;;;15.00;;
17850;SDS011;9051;51.548;14.348;2023-04-29T03:14:48;21.00;;;15.30;;
17850;SDS011;9051;51.548;14.348;2023-04-29T03:17:21;20.70;;;14.93;;
17850;SDS011;9051;51.548;14.348;2023-04-29T03:19:53;18.90;;;15.97;;
17850;SDS011;9051;51.548;14.348;2023-04-29T03:22:25;19.47;;;15.20;;
17850;SDS011;9051;51.548;14.348;2023-04-29T03:24:57;19.23;;;15.07;;
17850;SDS011;9051;51.548;14.348;2023-04-29T03:27:30;18.57;;;15.50;;
17850;SDS011;9051;51.548;14.348;2023-04-29T03:30:06;19.93;;;15.00;;
17850;SDS011;9051;51.548;14.348;2023-04-29T03:32:43;18.30;;;14.90;;
17850;SDS011;9051;51.548;14.348;2023-04-29T03:35:15;16.30;;;13.67;;
17850;SDS011;9051;51.548;14.348;2023-04-29T03:38:10;20.90;;;14.57;;
17850;SDS011;9051;51.548;14.348;2023-04-29T03:40:42;16.87;;;13.43;;
17850;SDS011;9051;51.548;14.348;2023-04-29T03:43:15;17.00;;;13.30;;
17850;SDS011;9051;51.548;14.348;2023-04-29T03:48:30;16.93;;;13.53;;
17850;SDS011;9051;51.548;14.348;2023-04-29T03:51:02;16.63;;;13.13;;
17850;SDS011;9051;51.548;14.348;2023-04-29T03:53:34;17.03;;;13.77;;
17850;SDS011;9051;51.548;14.348;2023-04-29T03:56:08;16.50;;;13.27;;
17850;SDS011;9051;51.548;14.348;2023-04-29T03:58:41;16.97;;;13.03;;
17850;SDS011;9051;51.548;14.348;2023-04-29T04:01:14;15.93;;;13.77;;
17850;SDS011;9051;51.548;14.348;2023-04-29T04:03:49;16.80;;;13.93;;
17850;SDS011;9051;51.548;14.348;2023-04-29T04:06:22;16.43;;;13.10;;
17850;SDS011;9051;51.548;14.348;2023-04-29T04:08:55;15.77;;;12.90;;
17850;SDS011;9051;51.548;14.348;2023-04-29T04:11:31;17.47;;;12.73;;
17850;SDS011;9051;51.548;14.348;2023-04-29T04:14:06;15.90;;;12.90;;
17850;SDS011;9051;51.548;14.348;2023-04-29T04:16:38;14.43;;;12.47;;
17850;SDS011;9051;51.548;14.348;2023-04-29T04:19:12;16.13;;;12.70;;
17850;SDS011;9051;51.548;14.348;2023-04-29T04:21:47;16.37;;;13.40;;
17850;SDS011;9051;51.548;14.348;2023-04-29T04:24:19;16.23;;;13.07;;
17850;SDS011;9051;51.548;14.348;2023-04-29T04:26:51;16.87;;;13.57;;
17850;SDS011;9051;51.548;14.348;2023-04-29T04:29:29;16.33;;;13.10;;
17850;SDS011;9051;51.548;14.348;2023-04-29T04:32:04;16.20;;;12.67;;
17850;SDS011;9051;51.548;14.348;2023-04-29T04:34:38;16.33;;;13.07;;
17850;SDS011;9051;51.548;14.348;2023-04-29T04:37:11;17.30;;;13.40;;
17850;SDS011;9051;51.548;14.348;2023-04-29T04:39:46;17.27;;;13.40;;
17850;SDS011;9051;51.548;14.348;2023-04-29T04:42:19;17.73;;;12.73;;
17850;SDS011;9051;51.548;14.348;2023-04-29T04:44:54;16.90;;;12.70;;
17850;SDS011;9051;51.548;14.348;2023-04-29T04:47:41;16.77;;;13.40;;
17850;SDS011;9051;51.548;14.348;2023-04-29T04:50:27;15.90;;;12.53;;
17850;SDS011;9051;51.548;14.348;2023-04-29T04:53:05;15.93;;;12.80;;
17850;SDS011;9051;51.548;14.348;2023-04-29T04:55:50;16.67;;;13.10;;
17850;SDS011;9051;51.548;14.348;2023-04-29T04:58:22;15.00;;;12.50;;
17850;SDS011;9051;51.548;14.348;2023-04-29T05:00:56;15.17;;;12.50;;
17850;SDS011;9051;51.548;14.348;2023-04-29T05:03:29;17.30;;;13.43;;
17850;SDS011;9051;51.548;14.348;2023-04-29T05:06:02;17.03;;;12.53;;
17850;SDS011;9051;51.548;14.348;2023-04-29T05:08:34;18.47;;;12.90;;
17850;SDS011;9051;51.548;14.348;2023-04-29T05:11:14;17.43;;;13.10;;
17850;SDS011;9051;51.548;14.348;2023-04-29T05:13:48;17.47;;;12.97;;
17850;SDS011;9051;51.548;14.348;2023-04-29T05:16:20;16.37;;;12.70;;
17850;SDS011;9051;51.548;14.348;2023-04-29T05:18:52;15.83;;;12.47;;
17850;SDS011;9051;51.548;14.348;2023-04-29T05:21:28;15.07;;;12.67;;
17850;SDS011;9051;51.548;14.348;2023-04-29T05:24:02;17.53;;;13.07;;
17850;SDS011;9051;51.548;14.348;2023-04-29T05:26:35;15.27;;;12.93;;
17850;SDS011;9051;51.548;14.348;2023-04-29T05:29:09;15.57;;;12.87;;
17850;SDS011;9051;51.548;14.348;2023-04-29T05:31:50;15.17;;;12.70;;
17850;SDS011;9051;51.548;14.348;2023-04-29T05:34:22;16.07;;;12.97;;
17850;SDS011;9051;51.548;14.348;2023-04-29T05:36:57;16.37;;;12.80;;
17850;SDS011;9051;51.548;14.348;2023-04-29T05:39:33;15.50;;;12.97;;
17850;SDS011;9051;51.548;14.348;2023-04-29T05:42:13;18.50;;;13.23;;
17850;SDS011;9051;51.548;14.348;2023-04-29T05:44:49;16.47;;;12.70;;
17850;SDS011;9051;51.548;14.348;2023-04-29T05:47:22;14.87;;;12.57;;
17850;SDS011;9051;51.548;14.348;2023-04-29T05:49:54;14.23;;;12.00;;
17850;SDS011;9051;51.548;14.348;2023-04-29T05:52:28;13.83;;;12.33;;
17850;SDS011;9051;51.548;14.348;2023-04-29T05:55:00;16.83;;;12.60;;
17850;SDS011;9051;51.548;14.348;2023-04-29T05:57:32;18.13;;;13.50;;
17850;SDS011;9051;51.548;14.348;2023-04-29T06:00:04;16.67;;;12.63;;
17850;SDS011;9051;51.548;14.348;2023-04-29T06:02:43;16.03;;;12.83;;
17850;SDS011;9051;51.548;14.348;2023-04-29T06:05:17;17.00;;;13.40;;
17850;SDS011;9051;51.548;14.348;2023-04-29T06:08:04;15.77;;;13.13;;
17850;SDS011;9051;51.548;14.348;2023-04-29T06:10:47;18.90;;;14.03;;
17850;SDS011;9051;51.548;14.348;2023-04-29T06:13:21;18.97;;;14.30;;
17850;SDS011;9051;51.548;14.348;2023-04-29T06:15:54;17.77;;;13.67;;
17850;SDS011;9051;51.548;14.348;2023-04-29T06:18:27;18.80;;;13.47;;
17850;SDS011;9051;51.548;14.348;2023-04-29T06:21:01;16.43;;;13.73;;
17850;SDS011;9051;51.548;14.348;2023-04-29T06:23:35;17.00;;;14.20;;
17850;SDS011;9051;51.548;14.348;2023-04-29T06:26:12;18.03;;;13.80;;
17850;SDS011;9051;51.548;14.348;2023-04-29T06:28:44;17.20;;;13.83;;
17850;SDS011;9051;51.548;14.348;2023-04-29T06:31:17;18.50;;;14.60;;
17850;SDS011;9051;51.548;14.348;2023-04-29T06:33:48;17.77;;;15.00;;
17850;SDS011;9051;51.548;14.348;2023-04-29T06:36:21;17.83;;;14.63;;
17850;SDS011;9051;51.548;14.348;2023-04-29T06:39:08;17.87;;;14.23;;
17850;SDS011;9051;51.548;14.348;2023-04-29T06:41:53;17.67;;;14.83;;
17850;SDS011;9051;51.548;14.348;2023-04-29T06:44:50;18.10;;;15.33;;
17850;SDS011;9051;51.548;14.348;2023-04-29T06:47:48;17.60;;;13.87;;
17850;SDS011;9051;51.548;14.348;2023-04-29T06:50:32;16.40;;;14.50;;
17850;SDS011;9051;51.548;14.348;2023-04-29T06:53:05;18.43;;;14.93;;
17850;SDS011;9051;51.548;14.348;2023-04-29T06:55:38;15.80;;;13.37;;
17850;SDS011;9051;51.548;14.348;2023-04-29T06:58:12;18.23;;;14.57;;
17850;SDS011;9051;51.548;14.348;2023-04-29T07:00:44;17.33;;;14.90;;
17850;SDS011;9051;51.548;14.348;2023-04-29T07:03:18;18.37;;;14.40;;
17850;SDS011;9051;51.548;14.348;2023-04-29T07:05:50;17.73;;;14.63;;
17850;SDS011;9051;51.548;14.348;2023-04-29T07:08:22;17.07;;;14.87;;
17850;SDS011;9051;51.548;14.348;2023-04-29T07:10:58;17.50;;;15.03;;
17850;SDS011;9051;51.548;14.348;2023-04-29T07:13:30;16.40;;;14.13;;
17850;SDS011;9051;51.548;14.348;2023-04-29T07:16:02;17.23;;;15.03;;
17850;SDS011;9051;51.548;14.348;2023-04-29T07:18:35;17.80;;;14.53;;
17850;SDS011;9051;51.548;14.348;2023-04-29T07:21:07;17.53;;;15.03;;
17850;SDS011;9051;51.548;14.348;2023-04-29T07:23:39;18.17;;;15.13;;
17850;SDS011;9051;51.548;14.348;2023-04-29T07:26:13;19.97;;;15.60;;
17850;SDS011;9051;51.548;14.348;2023-04-29T07:28:48;18.63;;;15.50;;
17850;SDS011;9051;51.548;14.348;2023-04-29T07:31:20;18.53;;;16.13;;
17850;SDS011;9051;51.548;14.348;2023-04-29T07:33:52;19.30;;;15.07;;
17850;SDS011;9051;51.548;14.348;2023-04-29T07:36:24;18.33;;;15.10;;
17850;SDS011;9051;51.548;14.348;2023-04-29T07:38:57;17.63;;;15.57;;
17850;SDS011;9051;51.548;14.348;2023-04-29T07:41:32;17.70;;;14.47;;
17850;SDS011;9051;51.548;14.348;2023-04-29T07:44:04;16.53;;;14.00;;
17850;SDS011;9051;51.548;14.348;2023-04-29T07:46:36;16.67;;;13.80;;
17850;SDS011;9051;51.548;14.348;2023-04-29T07:49:08;16.93;;;14.40;;
17850;SDS011;9051;51.548;14.348;2023-04-29T07:51:40;19.17;;;14.63;;
17850;SDS011;9051;51.548;14.348;2023-04-29T07:54:14;17.23;;;14.10;;
17850;SDS011;9051;51.548;14.348;2023-04-29T07:56:49;17.50;;;14.13;;
17850;SDS011;9051;51.548;14.348;2023-04-29T07:59:23;17.77;;;14.90;;
17850;SDS011;9051;51.548;14.348;2023-04-29T08:01:55;16.60;;;13.63;;
17850;SDS011;9051;51.548;14.348;2023-04-29T08:04:27;19.50;;;15.20;;
17850;SDS011;9051;51.548;14.348;2023-04-29T08:07:18;16.60;;;14.17;;
17850;SDS011;9051;51.548;14.348;2023-04-29T08:09:50;17.30;;;14.60;;
17850;SDS011;9051;51.548;14.348;2023-04-29T08:12:23;20.53;;;15.40;;
17850;SDS011;9051;51.548;14.348;2023-04-29T08:14:55;17.17;;;14.07;;
17850;SDS011;9051;51.548;14.348;2023-04-29T08:17:27;16.73;;;14.20;;
17850;SDS011;9051;51.548;14.348;2023-04-29T08:19:59;17.53;;;15.00;;
17850;SDS011;9051;51.548;14.348;2023-04-29T08:22:31;18.27;;;14.87;;
17850;SDS011;9051;51.548;14.348;2023-04-29T08:25:03;17.43;;;14.90;;
17850;SDS011;9051;51.548;14.348;2023-04-29T08:27:37;18.07;;;15.33;;
17850;SDS011;9051;51.548;14.348;2023-04-29T08:30:09;19.10;;;15.67;;
17850;SDS011;9051;51.548;14.348;2023-04-29T08:32:41;18.03;;;15.73;;
17850;SDS011;9051;51.548;14.348;2023-04-29T08:35:13;20.37;;;16.17;;
17850;SDS011;9051;51.548;14.348;2023-04-29T08:37:45;19.37;;;16.80;;
17850;SDS011;9051;51.548;14.348;2023-04-29T08:40:18;18.37;;;15.53;;
17850;SDS011;9051;51.548;14.348;2023-04-29T08:42:51;18.53;;;15.50;;
17850;SDS011;9051;51.548;14.348;2023-04-29T08:45:24;17.40;;;15.40;;
17850;SDS011;9051;51.548;14.348;2023-04-29T08:47:59;17.20;;;14.67;;
17850;SDS011;9051;51.548;14.348;2023-04-29T08:50:33;17.80;;;14.63;;
17850;SDS011;9051;51.548;14.348;2023-04-29T08:53:09;17.57;;;15.37;;
17850;SDS011;9051;51.548;14.348;2023-04-29T08:55:41;17.90;;;14.53;;
17850;SDS011;9051;51.548;14.348;2023-04-29T08:58:16;16.47;;;14.03;;
17850;SDS011;9051;51.548;14.348;2023-04-29T09:00:48;18.07;;;14.73;;
17850;SDS011;9051;51.548;14.348;2023-04-29T09:03:21;16.03;;;14.00;;
17850;SDS011;9051;51.548;14.348;2023-04-29T09:05:58;17.10;;;14.33;;
17850;SDS011;9051;51.548;14.348;2023-04-29T09:08:31;15.20;;;13.00;;
17850;SDS011;9051;51.548;14.348;2023-04-29T09:11:04;15.47;;;12.73;;
17850;SDS011;9051;51.548;14.348;2023-04-29T09:13:39;14.83;;;12.60;;
17850;SDS011;9051;51.548;14.348;2023-04-29T09:16:13;16.17;;;12.93;;
17850;SDS011;9051;51.548;14.348;2023-04-29T09:18:45;15.40;;;12.67;;
17850;SDS011;9051;51.548;14.348;2023-04-29T09:21:19;14.73;;;11.50;;
17850;SDS011;9051;51.548;14.348;2023-04-29T09:23:53;14.70;;;11.77;;
17850;SDS011;9051;51.548;14.348;2023-04-29T09:26:26;13.53;;;10.87;;
17850;SDS011;9051;51.548;14.348;2023-04-29T09:29:08;13.30;;;11.30;;
17850;SDS011;9051;51.548;14.348;2023-04-29T09:31:41;13.67;;;11.10;;
17850;SDS011;9051;51.548;14.348;2023-04-29T09:34:13;15.00;;;10.67;;
17850;SDS011;9051;51.548;14.348;2023-04-29T09:36:45;12.60;;;10.40;;
17850;SDS011;9051;51.548;14.348;2023-04-29T09:39:19;12.87;;;10.50;;
17850;SDS011;9051;51.548;14.348;2023-04-29T09:41:56;11.57;;;9.83;;
17850;SDS011;9051;51.548;14.348;2023-04-29T09:44:33;14.00;;;10.47;;
17850;SDS011;9051;51.548;14.348;2023-04-29T09:47:06;14.20;;;10.70;;
17850;SDS011;9051;51.548;14.348;2023-04-29T09:49:40;13.33;;;10.63;;
17850;SDS011;9051;51.548;14.348;2023-04-29T09:52:14;15.10;;;11.77;;
17850;SDS011;9051;51.548;14.348;2023-04-29T09:54:47;14.27;;;10.67;;
17850;SDS011;9051;51.548;14.348;2023-04-29T09:57:19;15.20;;;11.60;;
17850;SDS011;9051;51.548;14.348;2023-04-29T09:59:56;15.23;;;11.80;;
17850;SDS011;9051;51.548;14.348;2023-04-29T10:02:28;17.07;;;12.57;;
17850;SDS011;9051;51.548;14.348;2023-04-29T10:05:00;15.60;;;12.17;;
17850;SDS011;9051;51.548;14.348;2023-04-29T10:07:32;14.73;;;11.73;;
17850;SDS011;9051;51.548;14.348;2023-04-29T10:10:05;15.93;;;12.57;;
17850;SDS011;9051;51.548;14.348;2023-04-29T10:12:40;14.90;;;11.73;;
17850;SDS011;9051;51.548;14.348;2023-04-29T10:15:19;15.97;;;12.00;;
17850;SDS011;9051;51.548;14.348;2023-04-29T10:17:58;12.63;;;9.97;;
17850;SDS011;9051;51.548;14.348;2023-04-29T10:20:33;11.67;;;9.37;;
17850;SDS011;9051;51.548;14.348;2023-04-29T10:23:07;11.60;;;9.73;;
17850;SDS011;9051;51.548;14.348;2023-04-29T10:25:43;12.33;;;9.50;;
17850;SDS011;9051;51.548;14.348;2023-04-29T10:28:17;12.30;;;10.17;;
17850;SDS011;9051;51.548;14.348;2023-04-29T10:30:51;11.47;;;9.87;;
17850;SDS011;9051;51.548;14.348;2023-04-29T10:33:24;13.60;;;10.10;;
17850;SDS011;9051;51.548;14.348;2023-04-29T10:35:58;11.90;;;9.43;;
17850;SDS011;9051;51.548;14.348;2023-04-29T10:38:32;12.10;;;10.27;;
17850;SDS011;9051;51.548;14.348;2023-04-29T10:41:11;13.00;;;10.03;;
17850;SDS011;9051;51.548;14.348;2023-04-29T10:43:50;12.20;;;10.27;;
17850;SDS011;9051;51.548;14.348;2023-04-29T10:46:24;12.67;;;10.50;;
17850;SDS011;9051;51.548;14.348;2023-04-29T10:48:59;12.77;;;9.97;;
17850;SDS011;9051;51.548;14.348;2023-04-29T10:51:32;12.53;;;10.83;;
17850;SDS011;9051;51.548;14.348;2023-04-29T10:54:06;11.67;;;9.93;;
17850;SDS011;9051;51.548;14.348;2023-04-29T10:56:41;12.10;;;10.00;;
17850;SDS011;9051;51.548;14.348;2023-04-29T10:59:14;12.17;;;10.27;;
17850;SDS011;9051;51.548;14.348;2023-04-29T11:01:49;12.03;;;9.60;;
17850;SDS011;9051;51.548;14.348;2023-04-29T11:04:22;11.13;;;9.60;;
17850;SDS011;9051;51.548;14.348;2023-04-29T11:06:55;12.00;;;9.40;;
17850;SDS011;9051;51.548;14.348;2023-04-29T11:09:29;10.63;;;8.13;;
17850;SDS011;9051;51.548;14.348;2023-04-29T11:12:03;12.13;;;7.37;;
17850;SDS011;9051;51.548;14.348;2023-04-29T11:14:36;9.90;;;6.83;;
17850;SDS011;9051;51.548;14.348;2023-04-29T11:17:20;7.77;;;6.10;;
17850;SDS011;9051;51.548;14.348;2023-04-29T11:19:55;8.10;;;5.80;;
17850;SDS011;9051;51.548;14.348;2023-04-29T11:22:27;6.47;;;5.63;;
17850;SDS011;9051;51.548;14.348;2023-04-29T11:25:03;6.73;;;4.90;;
17850;SDS011;9051;51.548;14.348;2023-04-29T11:27:37;5.10;;;4.60;;
17850;SDS011;9051;51.548;14.348;2023-04-29T11:30:11;4.47;;;3.60;;
17850;SDS011;9051;51.548;14.348;2023-04-29T11:32:45;4.57;;;3.80;;
17850;SDS011;9051;51.548;14.348;2023-04-29T11:35:19;3.73;;;3.37;;
17850;SDS011;9051;51.548;14.348;2023-04-29T11:37:51;2.80;;;2.60;;
17850;SDS011;9051;51.548;14.348;2023-04-29T11:40:24;2.90;;;2.60;;
17850;SDS011;9051;51.548;14.348;2023-04-29T11:42:56;2.50;;;2.30;;
17850;SDS011;9051;51.548;14.348;2023-04-29T11:45:28;2.67;;;2.40;;
17850;SDS011;9051;51.548;14.348;2023-04-29T11:48:02;3.37;;;3.00;;
17850;SDS011;9051;51.548;14.348;2023-04-29T11:50:34;2.73;;;2.53;;
17850;SDS011;9051;51.548;14.348;2023-04-29T11:53:07;4.27;;;2.80;;
17850;SDS011;9051;51.548;14.348;2023-04-29T11:55:41;3.23;;;2.93;;
17850;SDS011;9051;51.548;14.348;2023-04-29T11:58:14;3.53;;;2.93;;
17850;SDS011;9051;51.548;14.348;2023-04-29T12:00:47;5.13;;;3.57;;
17850;SDS011;9051;51.548;14.348;2023-04-29T12:03:25;5.90;;;5.30;;
17850;SDS011;9051;51.548;14.348;2023-04-29T12:05:57;5.37;;;4.80;;
17850;SDS011;9051;51.548;14.348;2023-04-29T12:08:31;6.90;;;5.73;;
17850;SDS011;9051;51.548;14.348;2023-04-29T12:11:05;8.77;;;6.47;;
17850;SDS011;9051;51.548;14.348;2023-04-29T12:13:37;7.87;;;6.73;;
17850;SDS011;9051;51.548;14.348;2023-04-29T12:16:10;7.70;;;6.90;;
17850;SDS011;9051;51.548;14.348;2023-04-29T12:18:43;7.50;;;6.37;;
17850;SDS011;9051;51.548;14.348;2023-04-29T12:21:15;8.00;;;7.20;;
17850;SDS011;9051;51.548;14.348;2023-04-29T12:23:47;9.33;;;7.80;;
17850;SDS011;9051;51.548;14.348;2023-04-29T12:26:20;9.23;;;7.73;;
17850;SDS011;9051;51.548;14.348;2023-04-29T12:28:55;9.77;;;8.00;;
17850;SDS011;9051;51.548;14.348;2023-04-29T12:31:31;10.20;;;8.00;;
17850;SDS011;9051;51.548;14.348;2023-04-29T12:34:06;9.60;;;8.00;;
17850;SDS011;9051;51.548;14.348;2023-04-29T12:36:40;11.00;;;9.53;;
17850;SDS011;9051;51.548;14.348;2023-04-29T12:39:12;12.83;;;9.00;;
17850;SDS011;9051;51.548;14.348;2023-04-29T12:41:45;10.23;;;8.57;;
17850;SDS011;9051;51.548;14.348;2023-04-29T12:44:16;11.77;;;8.80;;
17850;SDS011;9051;51.548;14.348;2023-04-29T12:46:49;11.43;;;9.03;;
17850;SDS011;9051;51.548;14.348;2023-04-29T12:49:25;12.87;;;9.47;;
17850;SDS011;9051;51.548;14.348;2023-04-29T12:51:58;12.93;;;7.87;;
17850;SDS011;9051;51.548;14.348;2023-04-29T12:54:31;11.90;;;8.67;;
17850;SDS011;9051;51.548;14.348;2023-04-29T12:57:05;12.27;;;8.53;;
17850;SDS011;9051;51.548;14.348;2023-04-29T12:59:38;12.53;;;8.53;;
17850;SDS011;9051;51.548;14.348;2023-04-29T13:02:10;11.13;;;8.17;;
17850;SDS011;9051;51.548;14.348;2023-04-29T13:04:43;12.90;;;9.13;;
17850;SDS011;9051;51.548;14.348;2023-04-29T13:07:15;12.37;;;8.83;;
17850;SDS011;9051;51.548;14.348;2023-04-29T13:09:48;13.13;;;8.90;;
17850;SDS011;9051;51.548;14.348;2023-04-29T13:12:20;12.07;;;8.77;;
17850;SDS011;9051;51.548;14.348;2023-04-29T13:14:52;12.43;;;9.03;;
17850;SDS011;9051;51.548;14.348;2023-04-29T13:17:25;13.93;;;9.03;;
17850;SDS011;9051;51.548;14.348;2023-04-29T13:19:59;15.30;;;10.17;;
17850;SDS011;9051;51.548;14.348;2023-04-29T13:22:31;16.13;;;10.67;;
17850;SDS011;9051;51.548;14.348;2023-04-29T13:25:03;15.27;;;10.47;;
17850;SDS011;9051;51.548;14.348;2023-04-29T13:27:36;18.57;;;12.10;;
17850;SDS011;9051;51.548;14.348;2023-04-29T13:30:08;21.40;;;12.53;;
17850;SDS011;9051;51.548;14.348;2023-04-29T13:32:40;21.10;;;13.67;;
17850;SDS011;9051;51.548;14.348;2023-04-29T13:35:14;22.90;;;13.63;;
17850;SDS011;9051;51.548;14.348;2023-04-29T13:37:46;22.57;;;13.50;;
17850;SDS011;9051;51.548;14.348;2023-04-29T13:40:18;21.53;;;14.67;;
17850;SDS011;9051;51.548;14.348;2023-04-29T13:42:50;24.17;;;14.87;;
17850;SDS011;9051;51.548;14.348;2023-04-29T13:45:22;24.37;;;15.20;;
17850;SDS011;9051;51.548;14.348;2023-04-29T13:47:54;25.77;;;15.10;;
17850;SDS011;9051;51.548;14.348;2023-04-29T13:50:28;26.50;;;15.33;;
17850;SDS011;9051;51.548;14.348;2023-04-29T13:53:00;24.27;;;15.37;;
17850;SDS011;9051;51.548;14.348;2023-04-29T13:55:31;24.53;;;16.07;;
17850;SDS011;9051;51.548;14.348;2023-04-29T13:58:04;26.13;;;16.67;;
17850;SDS011;9051;51.548;14.348;2023-04-29T14:00:37;25.20;;;15.50;;
17850;SDS011;9051;51.548;14.348;2023-04-29T14:03:09;24.27;;;15.10;;
17850;SDS011;9051;51.548;14.348;2023-04-29T14:05:43;26.73;;;16.47;;
17850;SDS011;9051;51.548;14.348;2023-04-29T14:08:15;28.17;;;17.17;;
17850;SDS011;9051;51.548;14.348;2023-04-29T14:10:47;25.60;;;16.17;;
17850;SDS011;9051;51.548;14.348;2023-04-29T14:13:19;28.07;;;17.20;;
17850;SDS011;9051;51.548;14.348;2023-04-29T14:15:51;28.03;;;17.43;;
17850;SDS011;9051;51.548;14.348;2023-04-29T14:18:25;28.90;;;18.33;;
17850;SDS011;9051;51.548;14.348;2023-04-29T14:21:00;32.73;;;20.70;;
17850;SDS011;9051;51.548;14.348;2023-04-29T14:23:32;38.07;;;21.27;;
17850;SDS011;9051;51.548;14.348;2023-04-29T14:26:04;39.37;;;23.53;;
17850;SDS011;9051;51.548;14.348;2023-04-29T14:28:37;46.80;;;25.83;;
17850;SDS011;9051;51.548;14.348;2023-04-29T14:31:09;45.17;;;28.20;;
17850;SDS011;9051;51.548;14.348;2023-04-29T14:33:42;46.27;;;25.60;;
17850;SDS011;9051;51.548;14.348;2023-04-29T14:36:16;45.83;;;26.47;;
17850;SDS011;9051;51.548;14.348;2023-04-29T14:38:49;48.07;;;28.17;;
17850;SDS011;9051;51.548;14.348;2023-04-29T14:41:21;48.53;;;27.80;;
17850;SDS011;9051;51.548;14.348;2023-04-29T14:43:53;51.73;;;30.00;;
17850;SDS011;9051;51.548;14.348;2023-04-29T14:46:25;50.00;;;30.00;;
17850;SDS011;9051;51.548;14.348;2023-04-29T14:48:58;47.97;;;29.47;;
17850;SDS011;9051;51.548;14.348;2023-04-29T14:51:31;46.00;;;29.03;;
17850;SDS011;9051;51.548;14.348;2023-04-29T14:54:03;44.47;;;28.43;;
17850;SDS011;9051;51.548;14.348;2023-04-29T14:56:35;47.67;;;29.67;;
17850;SDS011;9051;51.548;14.348;2023-04-29T14:59:06;40.27;;;28.43;;
17850;SDS011;9051;51.548;14.348;2023-04-29T15:01:38;43.67;;;27.50;;
17850;SDS011;9051;51.548;14.348;2023-04-29T15:04:11;41.00;;;28.07;;
17850;SDS011;9051;51.548;14.348;2023-04-29T15:06:45;43.10;;;25.37;;
17850;SDS011;9051;51.548;14.348;2023-04-29T15:09:17;41.07;;;25.77;;